sensor_id;sensor_type;location;lat;lon;timestamp;temperature;humidity
2723;DHT22;1369;53.216;10.396;2024-01-27T00:01:39;5.80;99.90
2723;DHT22;1369;53.216;10.396;2024-01-27T00:04:05;5.80;99.90
2723;DHT22;1369;53.216;10.396;2024-01-27T00:06:30;5.80;99.90
2723;DHT22;1369;53.216;10.396;2024-01-27T00:08:56;5.80;99.90
2723;DHT22;1369;53.216;10.396;2024-01-27T00:11:21;5.70;99.90
2723;DHT22;1369;53.216;10.396;2024-01-27T00:13:49;5.70;99.90
2723;DHT22;1369;53.216;10.396;2024-01-27T00:16:15;5.60;99.90
2723;DHT22;1369;53.216;10.396;2024-01-27T00:18:40;5.60;99.90
2723;DHT22;1369;53.216;10.396;2024-01-27T00:21:07;5.50;99.90
2723;DHT22;1369;53.216;10.396;2024-01-27T00:23:33;5.40;99.90
2723;DHT22;1369;53.216;10.396;2024-01-27T00:26:00;5.30;99.90
2723;DHT22;1369;53.216;10.396;2024-01-27T00:28:25;5.30;99.90
2723;DHT22;1369;53.216;10.396;2024-01-27T00:30:51;5.20;99.90
2723;DHT22;1369;53.216;10.396;2024-01-27T00:33:17;5.20;99.90
2723;DHT22;1369;53.216;10.396;2024-01-27T00:35:42;5.10;99.90
2723;DHT22;1369;53.216;10.396;2024-01-27T00:38:08;5.10;99.90
2723;DHT22;1369;53.216;10.396;2024-01-27T00:40:34;5.10;99.90
2723;DHT22;1369;53.216;10.396;2024-01-27T00:43:01;5.10;99.90
2723;DHT22;1369;53.216;10.396;2024-01-27T00:45:27;5.10;99.90
2723;DHT22;1369;53.216;10.396;2024-01-27T00:47:54;5.10;99.90
2723;DHT22;1369;53.216;10.396;2024-01-27T00:50:19;5.00;99.90
2723;DHT22;1369;53.216;10.396;2024-01-27T00:52:45;5.00;99.90
2723;DHT22;1369;53.216;10.396;2024-01-27T00:55:10;5.00;99.90
2723;DHT22;1369;53.216;10.396;2024-01-27T00:57:36;5.00;99.90
2723;DHT22;1369;53.216;10.396;2024-01-27T01:00:06;5.00;99.90
2723;DHT22;1369;53.216;10.396;2024-01-27T01:02:33;5.00;99.90
2723;DHT22;1369;53.216;10.396;2024-01-27T01:04:58;5.00;99.90
2723;DHT22;1369;53.216;10.396;2024-01-27T01:07:24;5.10;99.90
2723;DHT22;1369;53.216;10.396;2024-01-27T01:09:49;5.10;99.90
2723;DHT22;1369;53.216;10.396;2024-01-27T01:12:15;5.20;99.90
2723;DHT22;1369;53.216;10.396;2024-01-27T01:14:41;5.30;99.90
2723;DHT22;1369;53.216;10.396;2024-01-27T01:17:07;5.30;99.90
2723;DHT22;1369;53.216;10.396;2024-01-27T01:19:33;5.40;99.90
2723;DHT22;1369;53.216;10.396;2024-01-27T01:21:58;5.50;99.90
2723;DHT22;1369;53.216;10.396;2024-01-27T01:24:24;5.50;99.90
2723;DHT22;1369;53.216;10.396;2024-01-27T01:26:49;5.50;99.90
2723;DHT22;1369;53.216;10.396;2024-01-27T01:29:16;5.50;99.90
2723;DHT22;1369;53.216;10.396;2024-01-27T01:31:42;5.50;99.90
2723;DHT22;1369;53.216;10.396;2024-01-27T01:34:08;5.50;99.90
2723;DHT22;1369;53.216;10.396;2024-01-27T01:36:34;5.60;99.90
2723;DHT22;1369;53.216;10.396;2024-01-27T01:38:59;5.60;99.90
2723;DHT22;1369;53.216;10.396;2024-01-27T01:41:25;5.60;99.90
2723;DHT22;1369;53.216;10.396;2024-01-27T01:43:50;5.70;99.90
2723;DHT22;1369;53.216;10.396;2024-01-27T01:46:16;5.70;99.90
2723;DHT22;1369;53.216;10.396;2024-01-27T01:48:42;5.70;99.90
2723;DHT22;1369;53.216;10.396;2024-01-27T01:51:08;5.70;99.90
2723;DHT22;1369;53.216;10.396;2024-01-27T01:53:34;5.80;99.90
2723;DHT22;1369;53.216;10.396;2024-01-27T01:56:00;5.80;99.90
2723;DHT22;1369;53.216;10.396;2024-01-27T01:58:26;5.80;99.90
2723;DHT22;1369;53.216;10.396;2024-01-27T02:00:59;5.80;99.90
2723;DHT22;1369;53.216;10.396;2024-01-27T02:03:25;5.80;99.90
2723;DHT22;1369;53.216;10.396;2024-01-27T02:05:51;5.90;99.90
2723;DHT22;1369;53.216;10.396;2024-01-27T02:08:17;5.90;99.90
2723;DHT22;1369;53.216;10.396;2024-01-27T02:10:42;5.90;99.90
2723;DHT22;1369;53.216;10.396;2024-01-27T02:13:19;5.90;99.90
2723;DHT22;1369;53.216;10.396;2024-01-27T02:15:46;5.90;99.90
2723;DHT22;1369;53.216;10.396;2024-01-27T02:18:12;5.90;99.90
2723;DHT22;1369;53.216;10.396;2024-01-27T02:20:38;5.90;99.90
2723;DHT22;1369;53.216;10.396;2024-01-27T02:23:04;5.90;99.90
2723;DHT22;1369;53.216;10.396;2024-01-27T02:25:33;5.90;99.90
2723;DHT22;1369;53.216;10.396;2024-01-27T02:27:59;5.90;99.90
2723;DHT22;1369;53.216;10.396;2024-01-27T02:30:25;6.00;99.90
2723;DHT22;1369;53.216;10.396;2024-01-27T02:32:51;5.90;99.90
2723;DHT22;1369;53.216;10.396;2024-01-27T02:35:17;5.90;99.90
2723;DHT22;1369;53.216;10.396;2024-01-27T02:37:43;6.00;99.90
2723;DHT22;1369;53.216;10.396;2024-01-27T02:40:09;6.00;99.90
2723;DHT22;1369;53.216;10.396;2024-01-27T02:42:38;6.00;99.90
2723;DHT22;1369;53.216;10.396;2024-01-27T02:45:04;5.90;99.90
2723;DHT22;1369;53.216;10.396;2024-01-27T02:47:30;5.90;99.90
2723;DHT22;1369;53.216;10.396;2024-01-27T02:49:55;5.80;99.90
2723;DHT22;1369;53.216;10.396;2024-01-27T02:52:21;5.80;99.90
2723;DHT22;1369;53.216;10.396;2024-01-27T02:54:46;5.80;99.90
2723;DHT22;1369;53.216;10.396;2024-01-27T02:57:12;5.80;99.90
2723;DHT22;1369;53.216;10.396;2024-01-27T02:59:38;5.80;99.90
2723;DHT22;1369;53.216;10.396;2024-01-27T03:02:05;5.80;99.90
2723;DHT22;1369;53.216;10.396;2024-01-27T03:04:30;5.80;99.90
2723;DHT22;1369;53.216;10.396;2024-01-27T03:06:56;5.80;99.90
2723;DHT22;1369;53.216;10.396;2024-01-27T03:09:22;5.80;99.90
2723;DHT22;1369;53.216;10.396;2024-01-27T03:11:47;5.80;99.90
2723;DHT22;1369;53.216;10.396;2024-01-27T03:14:13;5.80;99.90
2723;DHT22;1369;53.216;10.396;2024-01-27T03:16:39;5.80;99.90
2723;DHT22;1369;53.216;10.396;2024-01-27T03:19:04;5.80;99.90
2723;DHT22;1369;53.216;10.396;2024-01-27T03:21:30;5.90;99.90
2723;DHT22;1369;53.216;10.396;2024-01-27T03:23:55;5.80;99.90
2723;DHT22;1369;53.216;10.396;2024-01-27T03:26:21;5.80;99.90
2723;DHT22;1369;53.216;10.396;2024-01-27T03:28:47;5.90;99.90
2723;DHT22;1369;53.216;10.396;2024-01-27T03:31:12;5.90;99.90
2723;DHT22;1369;53.216;10.396;2024-01-27T03:33:38;5.90;99.90
2723;DHT22;1369;53.216;10.396;2024-01-27T03:36:09;5.90;99.90
2723;DHT22;1369;53.216;10.396;2024-01-27T03:38:35;6.00;99.90
2723;DHT22;1369;53.216;10.396;2024-01-27T03:41:02;6.00;99.90
2723;DHT22;1369;53.216;10.396;2024-01-27T03:43:27;6.00;99.90
2723;DHT22;1369;53.216;10.396;2024-01-27T03:45:53;6.00;99.90
2723;DHT22;1369;53.216;10.396;2024-01-27T03:48:18;6.00;99.90
2723;DHT22;1369;53.216;10.396;2024-01-27T03:50:44;5.90;99.90
2723;DHT22;1369;53.216;10.396;2024-01-27T03:53:10;6.00;99.90
2723;DHT22;1369;53.216;10.396;2024-01-27T03:55:35;6.00;99.90
2723;DHT22;1369;53.216;10.396;2024-01-27T03:58:01;6.00;99.90
2723;DHT22;1369;53.216;10.396;2024-01-27T04:00:27;6.00;99.90
2723;DHT22;1369;53.216;10.396;2024-01-27T04:02:55;6.00;99.90
2723;DHT22;1369;53.216;10.396;2024-01-27T04:05:20;6.00;99.90
2723;DHT22;1369;53.216;10.396;2024-01-27T04:07:46;6.00;99.90
2723;DHT22;1369;53.216;10.396;2024-01-27T04:10:11;6.00;99.90
2723;DHT22;1369;53.216;10.396;2024-01-27T04:12:37;5.90;99.90
2723;DHT22;1369;53.216;10.396;2024-01-27T04:15:02;5.90;99.90
2723;DHT22;1369;53.216;10.396;2024-01-27T04:17:28;5.90;99.90
2723;DHT22;1369;53.216;10.396;2024-01-27T04:19:53;5.80;99.90
2723;DHT22;1369;53.216;10.396;2024-01-27T04:22:19;5.80;99.90
2723;DHT22;1369;53.216;10.396;2024-01-27T04:24:45;5.80;99.90
2723;DHT22;1369;53.216;10.396;2024-01-27T04:27:10;5.80;99.90
2723;DHT22;1369;53.216;10.396;2024-01-27T04:29:36;5.70;99.90
2723;DHT22;1369;53.216;10.396;2024-01-27T04:32:01;5.80;99.90
2723;DHT22;1369;53.216;10.396;2024-01-27T04:34:27;5.80;99.90
2723;DHT22;1369;53.216;10.396;2024-01-27T04:36:53;5.80;99.90
2723;DHT22;1369;53.216;10.396;2024-01-27T04:39:18;5.70;99.90
2723;DHT22;1369;53.216;10.396;2024-01-27T04:41:44;5.60;99.90
2723;DHT22;1369;53.216;10.396;2024-01-27T04:44:10;5.50;99.90
2723;DHT22;1369;53.216;10.396;2024-01-27T04:46:35;5.50;99.90
2723;DHT22;1369;53.216;10.396;2024-01-27T04:49:01;5.40;99.90
2723;DHT22;1369;53.216;10.396;2024-01-27T04:51:26;5.30;99.90
2723;DHT22;1369;53.216;10.396;2024-01-27T04:53:52;5.30;99.90
2723;DHT22;1369;53.216;10.396;2024-01-27T04:56:18;5.20;99.90
2723;DHT22;1369;53.216;10.396;2024-01-27T04:58:44;5.20;99.90
2723;DHT22;1369;53.216;10.396;2024-01-27T05:01:09;5.20;99.90
2723;DHT22;1369;53.216;10.396;2024-01-27T05:03:35;5.20;99.90
2723;DHT22;1369;53.216;10.396;2024-01-27T05:06:02;5.20;99.90
2723;DHT22;1369;53.216;10.396;2024-01-27T05:08:27;5.20;99.90
2723;DHT22;1369;53.216;10.396;2024-01-27T05:10:53;5.30;99.90
2723;DHT22;1369;53.216;10.396;2024-01-27T05:13:18;5.30;99.90
2723;DHT22;1369;53.216;10.396;2024-01-27T05:15:44;5.30;99.90
2723;DHT22;1369;53.216;10.396;2024-01-27T05:18:10;5.30;99.90
2723;DHT22;1369;53.216;10.396;2024-01-27T05:20:36;5.30;99.90
2723;DHT22;1369;53.216;10.396;2024-01-27T05:23:01;5.30;99.90
2723;DHT22;1369;53.216;10.396;2024-01-27T05:25:27;5.30;99.90
2723;DHT22;1369;53.216;10.396;2024-01-27T05:27:52;5.20;99.90
2723;DHT22;1369;53.216;10.396;2024-01-27T05:30:18;5.20;99.90
2723;DHT22;1369;53.216;10.396;2024-01-27T05:32:43;5.20;99.90
2723;DHT22;1369;53.216;10.396;2024-01-27T05:35:09;5.10;99.90
2723;DHT22;1369;53.216;10.396;2024-01-27T05:37:35;5.20;99.90
2723;DHT22;1369;53.216;10.396;2024-01-27T05:40:01;5.20;99.90
2723;DHT22;1369;53.216;10.396;2024-01-27T05:42:28;5.20;99.90
2723;DHT22;1369;53.216;10.396;2024-01-27T05:44:53;5.20;99.90
2723;DHT22;1369;53.216;10.396;2024-01-27T05:47:19;5.20;99.90
2723;DHT22;1369;53.216;10.396;2024-01-27T05:49:44;5.20;99.90
2723;DHT22;1369;53.216;10.396;2024-01-27T05:52:10;5.20;99.90
2723;DHT22;1369;53.216;10.396;2024-01-27T05:54:36;5.20;99.90
2723;DHT22;1369;53.216;10.396;2024-01-27T05:57:02;5.20;99.90
2723;DHT22;1369;53.216;10.396;2024-01-27T05:59:28;5.20;99.90
2723;DHT22;1369;53.216;10.396;2024-01-27T06:01:54;5.20;99.90
2723;DHT22;1369;53.216;10.396;2024-01-27T06:04:19;5.30;99.90
2723;DHT22;1369;53.216;10.396;2024-01-27T06:06:45;5.20;99.90
2723;DHT22;1369;53.216;10.396;2024-01-27T06:09:11;5.30;99.90
2723;DHT22;1369;53.216;10.396;2024-01-27T06:11:37;5.20;99.90
2723;DHT22;1369;53.216;10.396;2024-01-27T06:14:03;5.20;99.90
2723;DHT22;1369;53.216;10.396;2024-01-27T06:16:28;5.20;99.90
2723;DHT22;1369;53.216;10.396;2024-01-27T06:18:54;5.20;99.90
2723;DHT22;1369;53.216;10.396;2024-01-27T06:21:20;5.10;99.90
2723;DHT22;1369;53.216;10.396;2024-01-27T06:23:46;5.20;99.90
2723;DHT22;1369;53.216;10.396;2024-01-27T06:26:13;5.10;99.90
2723;DHT22;1369;53.216;10.396;2024-01-27T06:28:39;5.10;99.90
2723;DHT22;1369;53.216;10.396;2024-01-27T06:31:05;5.00;99.90
2723;DHT22;1369;53.216;10.396;2024-01-27T06:33:34;5.00;99.90
2723;DHT22;1369;53.216;10.396;2024-01-27T06:35:59;5.00;99.90
2723;DHT22;1369;53.216;10.396;2024-01-27T06:38:26;5.00;99.90
2723;DHT22;1369;53.216;10.396;2024-01-27T06:40:52;5.00;99.90
2723;DHT22;1369;53.216;10.396;2024-01-27T06:43:19;4.90;99.90
2723;DHT22;1369;53.216;10.396;2024-01-27T06:45:44;4.90;99.90
2723;DHT22;1369;53.216;10.396;2024-01-27T06:48:10;4.90;99.90
2723;DHT22;1369;53.216;10.396;2024-01-27T06:50:36;4.90;99.90
2723;DHT22;1369;53.216;10.396;2024-01-27T06:53:02;4.80;99.90
2723;DHT22;1369;53.216;10.396;2024-01-27T06:55:27;4.80;99.90
2723;DHT22;1369;53.216;10.396;2024-01-27T06:57:53;4.80;99.90
2723;DHT22;1369;53.216;10.396;2024-01-27T07:00:20;4.80;99.90
2723;DHT22;1369;53.216;10.396;2024-01-27T07:02:46;4.70;99.90
2723;DHT22;1369;53.216;10.396;2024-01-27T07:05:11;4.70;99.90
2723;DHT22;1369;53.216;10.396;2024-01-27T07:07:40;4.70;99.90
2723;DHT22;1369;53.216;10.396;2024-01-27T07:10:07;4.60;99.90
2723;DHT22;1369;53.216;10.396;2024-01-27T07:12:33;4.60;99.90
2723;DHT22;1369;53.216;10.396;2024-01-27T07:14:59;4.60;99.90
2723;DHT22;1369;53.216;10.396;2024-01-27T07:17:26;4.50;99.90
2723;DHT22;1369;53.216;10.396;2024-01-27T07:19:51;4.50;99.90
2723;DHT22;1369;53.216;10.396;2024-01-27T07:22:17;4.50;99.90
2723;DHT22;1369;53.216;10.396;2024-01-27T07:24:43;4.50;99.90
2723;DHT22;1369;53.216;10.396;2024-01-27T07:27:11;4.50;99.90
2723;DHT22;1369;53.216;10.396;2024-01-27T07:29:37;4.50;99.90
2723;DHT22;1369;53.216;10.396;2024-01-27T07:32:03;4.50;99.90
2723;DHT22;1369;53.216;10.396;2024-01-27T07:34:28;4.50;99.90
2723;DHT22;1369;53.216;10.396;2024-01-27T07:36:54;4.50;99.90
2723;DHT22;1369;53.216;10.396;2024-01-27T07:39:19;4.50;99.90
2723;DHT22;1369;53.216;10.396;2024-01-27T07:41:45;4.50;99.90
2723;DHT22;1369;53.216;10.396;2024-01-27T07:44:13;4.50;99.90
2723;DHT22;1369;53.216;10.396;2024-01-27T07:46:39;4.50;99.90
2723;DHT22;1369;53.216;10.396;2024-01-27T07:49:06;4.40;99.90
2723;DHT22;1369;53.216;10.396;2024-01-27T07:51:32;4.50;99.90
2723;DHT22;1369;53.216;10.396;2024-01-27T07:53:58;4.50;99.90
2723;DHT22;1369;53.216;10.396;2024-01-27T07:56:24;4.50;99.90
2723;DHT22;1369;53.216;10.396;2024-01-27T07:58:50;4.50;99.90
2723;DHT22;1369;53.216;10.396;2024-01-27T08:01:17;4.50;99.90
2723;DHT22;1369;53.216;10.396;2024-01-27T08:03:42;4.50;99.90
2723;DHT22;1369;53.216;10.396;2024-01-27T08:06:16;4.50;99.90
2723;DHT22;1369;53.216;10.396;2024-01-27T08:08:45;4.60;99.90
2723;DHT22;1369;53.216;10.396;2024-01-27T08:11:11;4.60;99.90
2723;DHT22;1369;53.216;10.396;2024-01-27T08:13:37;4.60;99.90
2723;DHT22;1369;53.216;10.396;2024-01-27T08:16:03;4.70;99.90
2723;DHT22;1369;53.216;10.396;2024-01-27T08:18:30;4.60;99.90
2723;DHT22;1369;53.216;10.396;2024-01-27T08:20:56;4.70;99.90
2723;DHT22;1369;53.216;10.396;2024-01-27T08:23:21;4.70;99.90
2723;DHT22;1369;53.216;10.396;2024-01-27T08:25:47;4.70;99.90
2723;DHT22;1369;53.216;10.396;2024-01-27T08:28:17;4.70;99.90
2723;DHT22;1369;53.216;10.396;2024-01-27T08:30:42;4.70;99.90
2723;DHT22;1369;53.216;10.396;2024-01-27T08:33:08;4.80;99.90
2723;DHT22;1369;53.216;10.396;2024-01-27T08:35:34;4.80;99.90
2723;DHT22;1369;53.216;10.396;2024-01-27T08:37:59;4.90;99.90
2723;DHT22;1369;53.216;10.396;2024-01-27T08:40:25;5.00;99.90
2723;DHT22;1369;53.216;10.396;2024-01-27T08:42:51;5.10;99.90
2723;DHT22;1369;53.216;10.396;2024-01-27T08:45:16;5.10;99.90
2723;DHT22;1369;53.216;10.396;2024-01-27T08:47:42;5.30;99.90
2723;DHT22;1369;53.216;10.396;2024-01-27T08:50:08;5.40;99.90
2723;DHT22;1369;53.216;10.396;2024-01-27T08:52:35;5.50;99.90
2723;DHT22;1369;53.216;10.396;2024-01-27T08:55:00;5.50;99.90
2723;DHT22;1369;53.216;10.396;2024-01-27T08:57:26;5.60;99.90
2723;DHT22;1369;53.216;10.396;2024-01-27T08:59:51;5.60;99.90
2723;DHT22;1369;53.216;10.396;2024-01-27T09:02:17;5.60;99.90
2723;DHT22;1369;53.216;10.396;2024-01-27T09:04:42;5.70;99.90
2723;DHT22;1369;53.216;10.396;2024-01-27T09:07:08;5.60;99.90
2723;DHT22;1369;53.216;10.396;2024-01-27T09:09:33;5.60;99.90
2723;DHT22;1369;53.216;10.396;2024-01-27T09:11:59;5.70;99.90
2723;DHT22;1369;53.216;10.396;2024-01-27T09:14:25;5.70;99.90
2723;DHT22;1369;53.216;10.396;2024-01-27T09:16:50;5.70;99.90
2723;DHT22;1369;53.216;10.396;2024-01-27T09:19:17;5.70;99.90
2723;DHT22;1369;53.216;10.396;2024-01-27T09:21:43;5.70;99.90
2723;DHT22;1369;53.216;10.396;2024-01-27T09:24:08;5.80;99.90
2723;DHT22;1369;53.216;10.396;2024-01-27T09:26:34;5.80;99.90
2723;DHT22;1369;53.216;10.396;2024-01-27T09:29:00;5.80;99.90
2723;DHT22;1369;53.216;10.396;2024-01-27T09:31:25;5.80;99.90
2723;DHT22;1369;53.216;10.396;2024-01-27T09:33:53;5.80;99.90
2723;DHT22;1369;53.216;10.396;2024-01-27T09:36:19;5.80;99.90
2723;DHT22;1369;53.216;10.396;2024-01-27T09:38:45;5.90;99.90
2723;DHT22;1369;53.216;10.396;2024-01-27T09:41:13;5.90;99.90
2723;DHT22;1369;53.216;10.396;2024-01-27T09:43:43;5.90;99.90
2723;DHT22;1369;53.216;10.396;2024-01-27T09:46:12;5.90;99.90
2723;DHT22;1369;53.216;10.396;2024-01-27T09:48:38;6.00;99.90
2723;DHT22;1369;53.216;10.396;2024-01-27T09:51:06;6.00;99.90
2723;DHT22;1369;53.216;10.396;2024-01-27T09:53:32;6.00;99.90
2723;DHT22;1369;53.216;10.396;2024-01-27T09:55:58;6.10;99.90
2723;DHT22;1369;53.216;10.396;2024-01-27T09:58:31;6.10;99.90
2723;DHT22;1369;53.216;10.396;2024-01-27T10:01:00;6.20;99.90
2723;DHT22;1369;53.216;10.396;2024-01-27T10:03:27;6.20;99.90
2723;DHT22;1369;53.216;10.396;2024-01-27T10:05:54;6.20;99.90
2723;DHT22;1369;53.216;10.396;2024-01-27T10:08:21;6.30;99.90
2723;DHT22;1369;53.216;10.396;2024-01-27T10:10:49;6.40;99.90
2723;DHT22;1369;53.216;10.396;2024-01-27T10:13:18;6.50;99.90
2723;DHT22;1369;53.216;10.396;2024-01-27T10:15:43;6.60;99.90
2723;DHT22;1369;53.216;10.396;2024-01-27T10:18:09;6.60;99.90
2723;DHT22;1369;53.216;10.396;2024-01-27T10:20:39;6.70;99.90
2723;DHT22;1369;53.216;10.396;2024-01-27T10:23:12;6.80;99.90
2723;DHT22;1369;53.216;10.396;2024-01-27T10:25:39;6.90;99.90
2723;DHT22;1369;53.216;10.396;2024-01-27T10:28:09;7.10;99.90
2723;DHT22;1369;53.216;10.396;2024-01-27T10:30:35;7.20;99.90
2723;DHT22;1369;53.216;10.396;2024-01-27T10:33:01;7.30;99.90
2723;DHT22;1369;53.216;10.396;2024-01-27T10:35:28;7.40;99.90
2723;DHT22;1369;53.216;10.396;2024-01-27T10:37:55;7.50;99.90
2723;DHT22;1369;53.216;10.396;2024-01-27T10:40:21;7.50;99.90
2723;DHT22;1369;53.216;10.396;2024-01-27T10:43:09;7.60;99.90
2723;DHT22;1369;53.216;10.396;2024-01-27T10:45:41;7.60;99.90
2723;DHT22;1369;53.216;10.396;2024-01-27T10:48:09;7.70;99.90
2723;DHT22;1369;53.216;10.396;2024-01-27T10:50:40;7.70;99.90
2723;DHT22;1369;53.216;10.396;2024-01-27T10:53:09;7.70;99.90
2723;DHT22;1369;53.216;10.396;2024-01-27T10:55:42;7.80;99.90
2723;DHT22;1369;53.216;10.396;2024-01-27T10:58:10;7.80;99.90
2723;DHT22;1369;53.216;10.396;2024-01-27T11:00:37;7.90;99.90
2723;DHT22;1369;53.216;10.396;2024-01-27T11:03:04;7.90;99.90
2723;DHT22;1369;53.216;10.396;2024-01-27T11:05:34;7.90;99.90
2723;DHT22;1369;53.216;10.396;2024-01-27T11:08:01;8.00;99.90
2723;DHT22;1369;53.216;10.396;2024-01-27T11:10:27;8.00;99.90
2723;DHT22;1369;53.216;10.396;2024-01-27T11:13:01;8.00;99.90
2723;DHT22;1369;53.216;10.396;2024-01-27T11:15:26;8.10;99.90
2723;DHT22;1369;53.216;10.396;2024-01-27T11:17:57;8.20;99.90
2723;DHT22;1369;53.216;10.396;2024-01-27T11:20:25;8.20;99.90
2723;DHT22;1369;53.216;10.396;2024-01-27T11:22:51;8.20;99.90
2723;DHT22;1369;53.216;10.396;2024-01-27T11:25:18;8.30;99.90
2723;DHT22;1369;53.216;10.396;2024-01-27T11:27:45;8.30;99.90
2723;DHT22;1369;53.216;10.396;2024-01-27T11:32:50;8.40;99.90
2723;DHT22;1369;53.216;10.396;2024-01-27T11:35:19;8.40;99.90
2723;DHT22;1369;53.216;10.396;2024-01-27T11:37:45;8.50;99.90
2723;DHT22;1369;53.216;10.396;2024-01-27T11:40:11;8.50;99.90
2723;DHT22;1369;53.216;10.396;2024-01-27T11:42:37;8.50;99.90
2723;DHT22;1369;53.216;10.396;2024-01-27T11:45:02;8.60;99.90
2723;DHT22;1369;53.216;10.396;2024-01-27T11:47:29;8.60;99.90
2723;DHT22;1369;53.216;10.396;2024-01-27T11:49:56;8.60;99.90
2723;DHT22;1369;53.216;10.396;2024-01-27T11:52:24;8.60;99.90
2723;DHT22;1369;53.216;10.396;2024-01-27T11:54:56;8.60;99.90
2723;DHT22;1369;53.216;10.396;2024-01-27T11:57:23;8.60;99.90
2723;DHT22;1369;53.216;10.396;2024-01-27T11:59:49;8.60;99.90
2723;DHT22;1369;53.216;10.396;2024-01-27T12:02:15;8.70;99.90
2723;DHT22;1369;53.216;10.396;2024-01-27T12:04:41;8.70;99.90
2723;DHT22;1369;53.216;10.396;2024-01-27T12:07:07;8.80;99.90
2723;DHT22;1369;53.216;10.396;2024-01-27T12:09:33;8.80;99.90
2723;DHT22;1369;53.216;10.396;2024-01-27T12:12:00;8.80;99.90
2723;DHT22;1369;53.216;10.396;2024-01-27T12:14:26;8.80;99.90
2723;DHT22;1369;53.216;10.396;2024-01-27T12:17:02;8.80;99.90
2723;DHT22;1369;53.216;10.396;2024-01-27T12:19:28;8.80;99.90
2723;DHT22;1369;53.216;10.396;2024-01-27T12:21:53;8.90;99.90
2723;DHT22;1369;53.216;10.396;2024-01-27T12:24:19;8.90;99.90
2723;DHT22;1369;53.216;10.396;2024-01-27T12:26:45;8.90;99.90
2723;DHT22;1369;53.216;10.396;2024-01-27T12:29:10;8.90;99.90
2723;DHT22;1369;53.216;10.396;2024-01-27T12:31:36;9.00;99.90
2723;DHT22;1369;53.216;10.396;2024-01-27T12:34:03;9.00;99.90
2723;DHT22;1369;53.216;10.396;2024-01-27T12:36:28;9.00;99.90
2723;DHT22;1369;53.216;10.396;2024-01-27T12:38:59;9.10;99.90
2723;DHT22;1369;53.216;10.396;2024-01-27T12:41:26;9.00;99.90
2723;DHT22;1369;53.216;10.396;2024-01-27T12:43:53;9.10;99.90
2723;DHT22;1369;53.216;10.396;2024-01-27T12:46:18;9.00;99.90
2723;DHT22;1369;53.216;10.396;2024-01-27T12:48:45;9.00;99.90
2723;DHT22;1369;53.216;10.396;2024-01-27T12:51:11;9.00;99.90
2723;DHT22;1369;53.216;10.396;2024-01-27T12:53:41;9.00;99.90
2723;DHT22;1369;53.216;10.396;2024-01-27T12:56:09;8.90;99.90
2723;DHT22;1369;53.216;10.396;2024-01-27T12:58:35;9.00;99.90
2723;DHT22;1369;53.216;10.396;2024-01-27T13:01:01;8.90;99.90
2723;DHT22;1369;53.216;10.396;2024-01-27T13:03:27;8.90;99.90
2723;DHT22;1369;53.216;10.396;2024-01-27T13:05:54;9.00;99.90
2723;DHT22;1369;53.216;10.396;2024-01-27T13:08:20;9.00;99.90
2723;DHT22;1369;53.216;10.396;2024-01-27T13:10:46;9.00;99.90
2723;DHT22;1369;53.216;10.396;2024-01-27T13:13:12;8.90;99.90
2723;DHT22;1369;53.216;10.396;2024-01-27T13:15:38;8.90;99.90
2723;DHT22;1369;53.216;10.396;2024-01-27T13:18:04;8.90;99.90
2723;DHT22;1369;53.216;10.396;2024-01-27T13:20:30;8.90;99.90
2723;DHT22;1369;53.216;10.396;2024-01-27T13:22:55;8.90;99.90
2723;DHT22;1369;53.216;10.396;2024-01-27T13:25:21;8.90;99.90
2723;DHT22;1369;53.216;10.396;2024-01-27T13:27:47;8.90;99.90
2723;DHT22;1369;53.216;10.396;2024-01-27T13:30:13;8.90;99.90
2723;DHT22;1369;53.216;10.396;2024-01-27T13:32:39;8.90;99.90
2723;DHT22;1369;53.216;10.396;2024-01-27T13:35:06;8.90;99.90
2723;DHT22;1369;53.216;10.396;2024-01-27T13:37:33;8.80;99.90
2723;DHT22;1369;53.216;10.396;2024-01-27T13:40:03;8.80;99.90
2723;DHT22;1369;53.216;10.396;2024-01-27T13:42:30;8.80;99.90
2723;DHT22;1369;53.216;10.396;2024-01-27T13:44:56;8.80;99.90
2723;DHT22;1369;53.216;10.396;2024-01-27T13:47:22;8.80;99.90
2723;DHT22;1369;53.216;10.396;2024-01-27T13:49:48;8.70;99.90
2723;DHT22;1369;53.216;10.396;2024-01-27T13:52:13;8.70;99.90
2723;DHT22;1369;53.216;10.396;2024-01-27T13:54:39;8.60;99.90
2723;DHT22;1369;53.216;10.396;2024-01-27T13:57:06;8.60;99.90
2723;DHT22;1369;53.216;10.396;2024-01-27T13:59:31;8.50;99.90
2723;DHT22;1369;53.216;10.396;2024-01-27T14:01:58;8.50;99.90
2723;DHT22;1369;53.216;10.396;2024-01-27T14:04:24;8.40;99.90
2723;DHT22;1369;53.216;10.396;2024-01-27T14:06:53;8.40;99.90
2723;DHT22;1369;53.216;10.396;2024-01-27T14:09:23;8.30;99.90
2723;DHT22;1369;53.216;10.396;2024-01-27T14:11:49;8.30;99.90
2723;DHT22;1369;53.216;10.396;2024-01-27T14:14:14;8.20;99.90
2723;DHT22;1369;53.216;10.396;2024-01-27T14:16:46;8.20;99.90
2723;DHT22;1369;53.216;10.396;2024-01-27T14:19:12;8.20;99.90
2723;DHT22;1369;53.216;10.396;2024-01-27T14:21:39;8.10;99.90
2723;DHT22;1369;53.216;10.396;2024-01-27T14:24:07;8.10;99.90
2723;DHT22;1369;53.216;10.396;2024-01-27T14:26:33;8.00;99.90
2723;DHT22;1369;53.216;10.396;2024-01-27T14:28:59;8.00;99.90
2723;DHT22;1369;53.216;10.396;2024-01-27T14:31:25;7.90;99.90
2723;DHT22;1369;53.216;10.396;2024-01-27T14:33:50;7.90;99.90
2723;DHT22;1369;53.216;10.396;2024-01-27T14:36:16;7.90;99.90
2723;DHT22;1369;53.216;10.396;2024-01-27T14:38:42;7.80;99.90
2723;DHT22;1369;53.216;10.396;2024-01-27T14:41:08;7.80;99.90
2723;DHT22;1369;53.216;10.396;2024-01-27T14:43:34;7.80;99.90
2723;DHT22;1369;53.216;10.396;2024-01-27T14:46:00;7.80;99.90
2723;DHT22;1369;53.216;10.396;2024-01-27T14:48:25;7.80;99.90
2723;DHT22;1369;53.216;10.396;2024-01-27T14:50:52;7.70;99.90
2723;DHT22;1369;53.216;10.396;2024-01-27T14:53:28;7.70;99.90
2723;DHT22;1369;53.216;10.396;2024-01-27T14:55:54;7.70;99.90
2723;DHT22;1369;53.216;10.396;2024-01-27T14:58:20;7.70;99.90
2723;DHT22;1369;53.216;10.396;2024-01-27T15:00:46;7.60;99.90
2723;DHT22;1369;53.216;10.396;2024-01-27T15:03:18;7.60;99.90
2723;DHT22;1369;53.216;10.396;2024-01-27T15:05:45;7.60;99.90
2723;DHT22;1369;53.216;10.396;2024-01-27T15:08:11;7.50;99.90
2723;DHT22;1369;53.216;10.396;2024-01-27T15:10:37;7.50;99.90
2723;DHT22;1369;53.216;10.396;2024-01-27T15:13:05;7.50;99.90
2723;DHT22;1369;53.216;10.396;2024-01-27T15:15:31;7.40;99.90
2723;DHT22;1369;53.216;10.396;2024-01-27T15:17:57;7.40;99.90
2723;DHT22;1369;53.216;10.396;2024-01-27T15:20:26;7.40;99.90
2723;DHT22;1369;53.216;10.396;2024-01-27T15:22:53;7.30;99.90
2723;DHT22;1369;53.216;10.396;2024-01-27T15:25:19;7.30;99.90
2723;DHT22;1369;53.216;10.396;2024-01-27T15:27:45;7.20;99.90
2723;DHT22;1369;53.216;10.396;2024-01-27T15:30:12;7.10;99.90
2723;DHT22;1369;53.216;10.396;2024-01-27T15:32:38;7.00;99.90
2723;DHT22;1369;53.216;10.396;2024-01-27T15:35:04;7.00;99.90
2723;DHT22;1369;53.216;10.396;2024-01-27T15:37:30;6.90;99.90
2723;DHT22;1369;53.216;10.396;2024-01-27T15:39:56;6.80;99.90
2723;DHT22;1369;53.216;10.396;2024-01-27T15:42:22;6.80;99.90
2723;DHT22;1369;53.216;10.396;2024-01-27T15:44:47;6.70;99.90
2723;DHT22;1369;53.216;10.396;2024-01-27T15:47:13;6.60;99.90
2723;DHT22;1369;53.216;10.396;2024-01-27T15:49:38;6.50;99.90
2723;DHT22;1369;53.216;10.396;2024-01-27T15:52:06;6.50;99.90
2723;DHT22;1369;53.216;10.396;2024-01-27T15:54:32;6.40;99.90
2723;DHT22;1369;53.216;10.396;2024-01-27T15:56:57;6.30;99.90
2723;DHT22;1369;53.216;10.396;2024-01-27T15:59:23;6.30;99.90